Time;durP1;ratioP1;P1;durP2;ratioP2;P2;SDS_P1;SDS_P2;PMS_P1;PMS_P2;Temp;Humidity;BMP_temperature;BMP_pressure;BME280_temperature;BME280_humidity;BME280_pressure;Samples;Min_cycle;Max_cycle;Signal;HPM_P1;HPM_P2
2023/12/08 00:02:12;;;;;;;47.00;27.48;;;1.90;83.70;;;;;;5056628;28;20298;-76
2023/12/08 00:04:41;;;;;;;42.92;27.10;;;1.90;83.80;;;;;;5049269;28;20203;-76
2023/12/08 00:07:09;;;;;;;52.03;28.75;;;1.90;83.80;;;;;;5052154;28;20222;-76
2023/12/08 00:09:37;;;;;;;53.15;28.98;;;1.90;83.80;;;;;;5050887;28;20728;-77
2023/12/08 00:12:06;;;;;;;45.90;26.90;;;1.90;83.80;;;;;;5049980;28;20219;-76
2023/12/08 00:14:34;;;;;;;43.53;26.60;;;1.90;83.80;;;;;;5046577;28;20227;-76
2023/12/08 00:17:02;;;;;;;43.92;25.88;;;1.90;83.80;;;;;;5050409;28;20212;-76
2023/12/08 00:19:30;;;;;;;53.38;27.45;;;1.90;83.90;;;;;;5054993;28;20240;-76
2023/12/08 00:21:59;;;;;;;48.33;27.38;;;1.90;83.80;;;;;;5052203;28;20240;-76
2023/12/08 00:24:27;;;;;;;50.40;27.40;;;1.90;83.80;;;;;;5048723;28;20294;-76
2023/12/08 00:26:55;;;;;;;49.40;27.25;;;1.90;83.80;;;;;;5047867;28;20565;-76
2023/12/08 00:29:23;;;;;;;47.80;28.38;;;1.90;83.90;;;;;;5045731;28;20299;-76
2023/12/08 00:31:51;;;;;;;47.40;26.83;;;1.90;83.80;;;;;;5032877;28;20342;-76
2023/12/08 00:34:19;;;;;;;54.28;29.50;;;1.90;83.90;;;;;;5027381;28;20220;-76
2023/12/08 00:36:50;;;;;;;49.67;29.50;;;1.90;83.90;;;;;;5028261;28;20213;-76
2023/12/08 00:39:21;;;;;;;46.88;28.25;;;1.90;83.90;;;;;;5026665;28;20211;-76
2023/12/08 00:41:50;;;;;;;54.20;31.15;;;1.90;83.90;;;;;;5027139;28;20274;-76
2023/12/08 00:44:18;;;;;;;47.53;29.38;;;1.90;83.90;;;;;;5029735;28;20197;-76
2023/12/08 00:46:46;;;;;;;52.25;31.33;;;1.90;84.00;;;;;;5026220;28;20201;-76
2023/12/08 00:49:14;;;;;;;45.70;28.50;;;1.80;84.00;;;;;;5027060;28;20205;-76
2023/12/08 00:51:44;;;;;;;59.70;31.55;;;1.80;84.00;;;;;;5027034;28;20816;-76
2023/12/08 00:54:13;;;;;;;49.70;28.63;;;1.80;84.00;;;;;;5027542;28;20635;-76
2023/12/08 00:56:43;;;;;;;55.95;30.55;;;1.80;84.10;;;;;;5026241;28;20270;-76
2023/12/08 00:59:11;;;;;;;50.42;28.95;;;1.80;84.20;;;;;;5029056;28;20278;-76
2023/12/08 01:01:39;;;;;;;50.50;29.55;;;1.80;84.20;;;;;;5032424;28;20546;-76
2023/12/08 01:04:07;;;;;;;49.72;28.40;;;1.90;84.20;;;;;;5032400;28;20205;-75
2023/12/08 01:06:35;;;;;;;50.35;27.98;;;1.90;84.20;;;;;;5022289;28;20237;-75
2023/12/08 01:09:03;;;;;;;48.45;27.88;;;1.90;84.20;;;;;;5029601;28;20220;-75
2023/12/08 01:11:32;;;;;;;50.53;28.55;;;1.90;84.10;;;;;;5029343;28;20820;-75
2023/12/08 01:14:01;;;;;;;46.83;27.17;;;1.90;84.10;;;;;;5038274;28;20704;-75
2023/12/08 01:16:30;;;;;;;50.38;28.77;;;1.90;84.10;;;;;;5037215;28;20224;-75
2023/12/08 01:18:58;;;;;;;47.70;28.17;;;1.90;84.10;;;;;;5039163;28;20194;-75
2023/12/08 01:21:26;;;;;;;44.92;27.30;;;1.90;84.10;;;;;;5036659;28;20194;-75
2023/12/08 01:23:54;;;;;;;49.75;28.73;;;1.90;84.10;;;;;;5026045;28;20277;-75
2023/12/08 01:26:22;;;;;;;45.70;27.13;;;2.00;84.00;;;;;;5031311;28;20233;-75
2023/12/08 01:28:50;;;;;;;49.05;29.25;;;1.90;84.00;;;;;;5032755;28;20205;-76
2023/12/08 01:31:20;;;;;;;46.38;27.67;;;1.90;84.00;;;;;;5037945;28;20692;-76
2023/12/08 01:33:47;;;;;;;51.80;29.38;;;1.90;84.00;;;;;;5049041;28;20982;-76
2023/12/08 01:36:16;;;;;;;47.58;28.67;;;1.90;84.00;;;;;;5050467;28;20583;-76
2023/12/08 01:39:04;;;;;;;40.92;25.73;;;1.90;84.00;;;;;;5059522;28;20204;-76
2023/12/08 01:41:32;;;;;;;49.78;28.42;;;1.90;84.00;;;;;;5045828;28;20200;-76
2023/12/08 01:44:00;;;;;;;44.63;26.65;;;1.90;84.00;;;;;;5046194;28;20263;-76
2023/12/08 01:46:30;;;;;;;47.05;28.10;;;1.90;84.10;;;;;;5046621;28;20241;-76
2023/12/08 01:48:59;;;;;;;48.38;27.45;;;1.90;84.10;;;;;;5051617;28;20244;-76
2023/12/08 01:51:29;;;;;;;49.38;27.45;;;1.90;84.20;;;;;;5044178;28;20199;-76
2023/12/08 01:53:57;;;;;;;48.75;28.40;;;1.90;84.10;;;;;;5048932;28;20200;-76
2023/12/08 01:56:27;;;;;;;46.70;27.40;;;1.90;84.20;;;;;;5049744;28;20646;-76
2023/12/08 01:58:55;;;;;;;45.88;26.77;;;1.90;84.40;;;;;;5047314;28;20222;-76
2023/12/08 02:01:23;;;;;;;44.88;26.05;;;2.00;84.30;;;;;;5049818;28;20224;-76
2023/12/08 02:03:52;;;;;;;40.55;25.52;;;2.00;84.00;;;;;;5045915;28;20208;-76
2023/12/08 02:06:21;;;;;;;50.15;27.02;;;2.00;84.00;;;;;;5048465;28;20244;-76
2023/12/08 02:08:49;;;;;;;53.00;29.00;;;2.00;83.90;;;;;;5043996;28;20211;-76
2023/12/08 02:11:18;;;;;;;62.55;32.78;;;2.00;83.80;;;;;;5047594;28;20941;-76
2023/12/08 02:13:47;;;;;;;45.67;26.60;;;2.00;83.90;;;;;;5057296;28;20201;-77
2023/12/08 02:16:19;;;;;;;41.67;25.27;;;2.00;84.00;;;;;;5051949;28;20356;-77
2023/12/08 02:18:48;;;;;;;48.33;26.35;;;2.00;83.90;;;;;;5049702;28;20203;-76
2023/12/08 02:21:18;;;;;;;44.10;26.50;;;2.10;84.10;;;;;;5048708;28;20288;-75
2023/12/08 02:23:49;;;;;;;43.60;26.33;;;2.20;84.00;;;;;;5048162;28;20282;-76
2023/12/08 02:26:18;;;;;;;44.45;25.50;;;2.10;83.80;;;;;;5049475;28;20280;-76
2023/12/08 02:28:47;;;;;;;48.58;25.90;;;2.10;83.60;;;;;;5049659;28;20223;-76
2023/12/08 02:31:20;;;;;;;46.80;25.75;;;2.10;83.60;;;;;;5046075;28;20236;-75
2023/12/08 02:33:51;;;;;;;48.80;27.80;;;2.00;83.80;;;;;;5046957;28;20216;-75
2023/12/08 02:36:21;;;;;;;53.88;28.90;;;2.10;84.00;;;;;;5045719;28;20234;-76
2023/12/08 02:38:52;;;;;;;44.22;24.83;;;2.20;84.10;;;;;;5048780;28;20210;-76
2023/12/08 02:41:20;;;;;;;45.10;25.33;;;2.20;83.80;;;;;;5053617;28;20213;-75
2023/12/08 02:43:48;;;;;;;44.92;25.80;;;2.30;83.70;;;;;;5057851;28;20208;-76
2023/12/08 02:46:16;;;;;;;54.97;27.83;;;2.30;83.70;;;;;;5051097;28;20319;-75
2023/12/08 02:48:44;;;;;;;49.25;26.17;;;2.30;83.70;;;;;;5049235;28;21006;-76
2023/12/08 02:51:22;;;;;;;55.72;27.73;;;2.30;83.80;;;;;;5045162;28;20309;-76
2023/12/08 02:53:53;;;;;;;67.13;31.58;;;2.40;83.90;;;;;;5045585;28;20291;-75
2023/12/08 02:56:21;;;;;;;44.70;25.60;;;2.50;83.70;;;;;;5046709;28;20344;-76
2023/12/08 02:58:49;;;;;;;43.58;27.02;;;2.50;83.60;;;;;;5045639;28;20209;-75
2023/12/08 03:01:17;;;;;;;46.08;25.95;;;2.50;83.50;;;;;;5046310;28;20228;-76
2023/12/08 03:03:45;;;;;;;82.47;37.00;;;2.50;83.20;;;;;;5044412;28;20238;-75
2023/12/08 03:06:13;;;;;;;48.05;27.98;;;2.50;83.20;;;;;;5050008;28;20210;-78
2023/12/08 03:08:41;;;;;;;43.80;25.55;;;2.50;83.10;;;;;;5047183;28;20283;-76
2023/12/08 03:11:11;;;;;;;43.45;24.40;;;2.40;82.90;;;;;;5038367;28;20618;-76
2023/12/08 03:13:39;;;;;;;54.72;28.45;;;2.40;82.90;;;;;;5049005;28;20637;-76
2023/12/08 03:16:08;;;;;;;45.20;26.52;;;2.30;83.10;;;;;;5049564;28;20220;-75
2023/12/08 03:18:36;;;;;;;49.05;27.42;;;2.30;83.20;;;;;;5049430;28;20213;-76
2023/12/08 03:21:05;;;;;;;42.20;25.38;;;2.20;83.20;;;;;;5045429;28;20202;-76
2023/12/08 03:23:34;;;;;;;46.53;25.10;;;2.20;83.20;;;;;;5058133;28;20212;-76
2023/12/08 03:26:03;;;;;;;50.85;26.42;;;2.20;83.20;;;;;;5050978;28;20246;-76
2023/12/08 03:28:33;;;;;;;46.75;26.27;;;2.20;83.40;;;;;;5050985;28;20235;-76
2023/12/08 03:31:01;;;;;;;45.15;27.15;;;2.30;83.50;;;;;;5046464;28;20223;-76
2023/12/08 03:33:29;;;;;;;44.90;25.85;;;2.30;83.40;;;;;;5047047;28;20200;-76
2023/12/08 03:35:57;;;;;;;41.08;23.90;;;2.30;83.40;;;;;;5041454;28;20234;-75
2023/12/08 03:38:25;;;;;;;48.20;25.80;;;2.40;83.40;;;;;;5048626;28;20215;-75
2023/12/08 03:40:53;;;;;;;46.70;24.52;;;2.40;83.30;;;;;;5047049;28;20204;-76
2023/12/08 03:43:21;;;;;;;46.67;26.17;;;2.40;83.10;;;;;;5048492;28;20210;-76
2023/12/08 03:45:50;;;;;;;43.80;24.10;;;2.40;83.20;;;;;;5045260;28;20205;-76
2023/12/08 03:48:18;;;;;;;45.47;24.40;;;2.50;83.10;;;;;;5046947;28;20215;-75
2023/12/08 03:50:46;;;;;;;44.95;25.40;;;2.40;83.00;;;;;;5044600;28;20204;-76
2023/12/08 03:53:14;;;;;;;42.72;23.20;;;2.40;83.00;;;;;;5044342;28;20189;-76
2023/12/08 03:55:42;;;;;;;49.42;25.38;;;2.50;83.10;;;;;;5044259;28;20300;-76
2023/12/08 03:58:10;;;;;;;43.25;25.13;;;2.50;83.20;;;;;;5054059;28;20218;-76
2023/12/08 04:00:38;;;;;;;44.50;25.92;;;2.50;83.10;;;;;;5049428;28;20239;-76
2023/12/08 04:03:07;;;;;;;46.15;25.40;;;2.50;83.00;;;;;;5045620;28;20270;-76
2023/12/08 04:05:35;;;;;;;50.38;24.23;;;2.50;82.80;;;;;;5047588;28;20205;-76
2023/12/08 04:08:04;;;;;;;39.40;22.65;;;2.40;82.90;;;;;;5047292;28;20600;-76
2023/12/08 04:10:32;;;;;;;47.75;23.98;;;2.40;82.80;;;;;;5044858;28;20198;-76
2023/12/08 04:13:00;;;;;;;45.80;26.20;;;2.40;82.80;;;;;;5046574;28;20205;-76
2023/12/08 04:15:29;;;;;;;44.88;25.00;;;2.40;82.90;;;;;;5047282;28;20201;-75
2023/12/08 04:17:58;;;;;;;49.25;27.88;;;2.40;82.90;;;;;;5044354;28;20571;-75
2023/12/08 04:20:27;;;;;;;47.80;27.98;;;2.40;82.90;;;;;;5045702;28;20302;-75
2023/12/08 04:22:55;;;;;;;47.80;28.88;;;2.40;82.90;;;;;;5041551;28;20312;-75
2023/12/08 04:25:23;;;;;;;45.17;25.80;;;2.40;83.10;;;;;;5051420;28;20203;-75
2023/12/08 04:27:51;;;;;;;44.15;24.92;;;2.40;83.10;;;;;;5044483;28;20626;-76
2023/12/08 04:30:20;;;;;;;41.92;24.38;;;2.40;82.90;;;;;;5049425;28;20222;-76
2023/12/08 04:32:48;;;;;;;47.10;24.60;;;2.30;82.80;;;;;;5048729;28;20201;-76
2023/12/08 04:35:16;;;;;;;45.30;24.90;;;2.30;82.90;;;;;;5048086;28;20637;-76
2023/12/08 04:37:45;;;;;;;46.65;24.75;;;2.30;82.90;;;;;;5047188;28;20225;-76
2023/12/08 04:40:14;;;;;;;43.05;24.65;;;2.30;82.90;;;;;;5055226;28;20209;-76
2023/12/08 04:42:43;;;;;;;42.05;24.30;;;2.30;82.90;;;;;;5046992;28;20622;-76
2023/12/08 04:45:13;;;;;;;46.67;24.80;;;2.30;82.90;;;;;;5049370;28;20647;-75
2023/12/08 04:47:42;;;;;;;43.13;23.10;;;2.30;82.80;;;;;;5046054;28;20246;-76
2023/12/08 04:50:10;;;;;;;40.67;23.73;;;2.30;82.90;;;;;;5049872;28;20202;-76
2023/12/08 04:52:38;;;;;;;45.60;25.40;;;2.30;82.90;;;;;;5050216;28;20641;-76
2023/12/08 04:55:08;;;;;;;44.03;25.20;;;2.30;82.90;;;;;;5050582;28;20206;-76
2023/12/08 04:57:37;;;;;;;51.10;28.38;;;2.30;83.10;;;;;;5060004;28;20569;-75
2023/12/08 05:00:06;;;;;;;54.03;29.42;;;2.30;83.10;;;;;;5053029;28;20200;-75
2023/12/08 05:02:34;;;;;;;49.13;27.77;;;2.30;83.10;;;;;;5048249;28;21015;-75
2023/12/08 05:05:03;;;;;;;42.17;24.67;;;2.30;82.80;;;;;;5050599;28;20210;-76
2023/12/08 05:07:31;;;;;;;40.33;23.52;;;2.30;83.10;;;;;;5056703;28;20645;-75
2023/12/08 05:10:00;;;;;;;37.55;23.17;;;2.40;83.10;;;;;;5050745;28;20219;-75
2023/12/08 05:12:30;;;;;;;41.33;26.15;;;2.30;82.80;;;;;;5057696;28;20212;-75
2023/12/08 05:14:58;;;;;;;37.65;22.75;;;2.30;82.80;;;;;;5042100;28;20201;-75
2023/12/08 05:17:26;;;;;;;41.05;22.20;;;2.30;82.90;;;;;;5049161;28;20219;-76
2023/12/08 05:19:54;;;;;;;35.92;22.00;;;2.30;82.90;;;;;;5048561;28;20192;-76
2023/12/08 05:22:22;;;;;;;38.22;23.05;;;2.30;83.10;;;;;;5053449;28;20298;-76
2023/12/08 05:24:50;;;;;;;37.75;22.88;;;2.30;83.20;;;;;;5046782;28;20212;-75
2023/12/08 05:27:19;;;;;;;42.72;23.90;;;2.30;83.10;;;;;;5045772;28;20279;-76
2023/12/08 05:29:48;;;;;;;39.22;22.83;;;2.30;82.90;;;;;;5055938;28;20205;-75
2023/12/08 05:32:16;;;;;;;44.55;24.67;;;2.30;82.90;;;;;;5044813;28;21011;-76
2023/12/08 05:34:44;;;;;;;41.13;25.05;;;2.30;83.30;;;;;;5052913;28;20210;-76
2023/12/08 05:37:12;;;;;;;38.78;23.92;;;2.40;83.40;;;;;;5051659;28;20342;-76
2023/12/08 05:39:40;;;;;;;39.92;22.08;;;2.50;83.30;;;;;;5052684;28;20216;-75
2023/12/08 05:42:08;;;;;;;33.63;19.58;;;2.60;83.30;;;;;;5047745;28;20206;-76
2023/12/08 05:44:36;;;;;;;35.28;20.95;;;2.70;83.20;;;;;;5048997;28;20234;-76
2023/12/08 05:47:06;;;;;;;33.65;20.63;;;2.70;83.10;;;;;;5047731;28;20230;-76
2023/12/08 05:49:34;;;;;;;34.08;20.95;;;2.80;83.00;;;;;;5048203;28;20216;-76
2023/12/08 05:52:03;;;;;;;37.92;22.13;;;2.80;82.90;;;;;;5042285;28;20275;-76
2023/12/08 05:54:31;;;;;;;39.42;22.20;;;2.90;82.80;;;;;;5048079;28;20206;-75
2023/12/08 05:56:59;;;;;;;40.22;22.42;;;2.80;82.70;;;;;;5048392;28;20195;-75
2023/12/08 05:59:27;;;;;;;38.55;22.67;;;2.80;82.60;;;;;;5049779;28;20204;-74
2023/12/08 06:01:55;;;;;;;37.22;22.77;;;2.80;82.60;;;;;;5046043;28;20239;-77
2023/12/08 06:04:25;;;;;;;37.67;23.10;;;2.80;82.70;;;;;;5057335;28;20206;-75
2023/12/08 06:06:53;;;;;;;36.75;21.58;;;2.80;82.60;;;;;;5051210;28;20232;-75
2023/12/08 06:09:21;;;;;;;38.60;22.23;;;2.80;82.50;;;;;;5051151;28;20264;-75
2023/12/08 06:11:50;;;;;;;39.97;24.98;;;2.80;82.50;;;;;;5044587;28;20207;-75
2023/12/08 06:14:18;;;;;;;40.30;23.45;;;2.80;82.50;;;;;;5047523;28;20708;-75
2023/12/08 06:16:46;;;;;;;38.83;22.80;;;2.80;82.60;;;;;;5055427;28;20209;-75
2023/12/08 06:19:14;;;;;;;44.53;25.10;;;2.80;82.70;;;;;;5050869;28;20241;-75
2023/12/08 06:21:43;;;;;;;37.58;23.67;;;2.80;82.60;;;;;;5057056;28;20287;-75
2023/12/08 06:24:12;;;;;;;39.35;23.75;;;2.80;82.70;;;;;;5022451;28;20237;-75
2023/12/08 06:26:41;;;;;;;37.47;22.98;;;2.80;82.70;;;;;;5052397;28;20215;-74
2023/12/08 06:29:09;;;;;;;55.70;31.00;;;2.80;82.70;;;;;;5036720;28;20228;-75
2023/12/08 06:31:37;;;;;;;41.78;25.05;;;2.90;82.50;;;;;;5050072;28;21003;-74
2023/12/08 06:34:05;;;;;;;43.05;24.48;;;2.90;82.50;;;;;;5048664;28;20362;-75
2023/12/08 06:36:48;;;;;;;42.10;24.25;;;2.90;82.50;;;;;;5039708;28;20312;-74
2023/12/08 06:39:16;;;;;;;46.28;25.60;;;2.90;82.50;;;;;;5052789;28;20230;-74
2023/12/08 06:41:45;;;;;;;43.58;25.27;;;2.90;82.50;;;;;;5050296;28;20236;-75
2023/12/08 06:44:13;;;;;;;42.60;24.98;;;2.90;82.60;;;;;;5048429;28;20202;-75
2023/12/08 06:46:41;;;;;;;47.10;25.73;;;2.90;82.70;;;;;;5038943;28;20236;-75
2023/12/08 06:49:09;;;;;;;41.78;24.80;;;2.90;82.70;;;;;;5048700;28;20198;-75
2023/12/08 06:51:37;;;;;;;43.03;25.60;;;3.00;82.70;;;;;;5048777;28;20203;-75
2023/12/08 06:54:06;;;;;;;45.88;27.95;;;3.00;82.80;;;;;;5044962;28;20212;-75
2023/12/08 06:56:35;;;;;;;43.03;25.00;;;3.10;82.80;;;;;;5054609;28;20262;-75
2023/12/08 06:59:03;;;;;;;58.17;32.95;;;3.20;82.80;;;;;;5062130;28;20218;-75
2023/12/08 07:01:31;;;;;;;49.35;31.42;;;3.20;82.50;;;;;;5034199;28;20225;-75
2023/12/08 07:03:59;;;;;;;50.35;31.60;;;3.20;82.60;;;;;;5023323;28;20211;-75
2023/12/08 07:06:27;;;;;;;54.15;30.98;;;3.20;82.40;;;;;;5026753;28;20215;-75
2023/12/08 07:08:55;;;;;;;46.53;29.02;;;3.10;82.40;;;;;;5025623;28;20196;-76
2023/12/08 07:11:25;;;;;;;54.17;30.15;;;3.10;82.30;;;;;;5024880;28;20203;-75
2023/12/08 07:13:53;;;;;;;48.15;28.20;;;3.00;82.30;;;;;;5021983;28;20198;-76
2023/12/08 07:16:21;;;;;;;43.15;27.92;;;3.00;82.40;;;;;;5027007;28;20222;-75
2023/12/08 07:18:49;;;;;;;50.65;31.00;;;3.00;82.50;;;;;;5023545;28;20691;-75
2023/12/08 07:21:17;;;;;;;46.70;27.65;;;2.90;82.60;;;;;;5022338;28;20675;-75
2023/12/08 07:23:45;;;;;;;47.10;27.30;;;3.00;82.70;;;;;;5023995;28;20565;-75
2023/12/08 07:26:14;;;;;;;47.95;28.25;;;3.00;82.80;;;;;;5024858;28;20646;-75
2023/12/08 07:28:43;;;;;;;52.92;30.40;;;3.00;82.80;;;;;;5027486;28;20203;-75
2023/12/08 07:31:12;;;;;;;58.03;32.90;;;3.10;82.90;;;;;;5027814;28;20229;-75
2023/12/08 07:33:40;;;;;;;49.75;29.40;;;3.20;82.80;;;;;;5033087;28;20270;-75
2023/12/08 07:36:08;;;;;;;43.42;25.98;;;3.20;82.70;;;;;;5034912;28;20592;-75
2023/12/08 07:38:36;;;;;;;45.22;24.65;;;3.20;82.60;;;;;;5035885;28;20224;-75
2023/12/08 07:41:04;;;;;;;41.90;25.65;;;3.20;82.50;;;;;;5028492;28;20213;-75
2023/12/08 07:43:32;;;;;;;49.97;29.08;;;3.20;82.60;;;;;;5027055;28;20290;-76
2023/12/08 07:46:01;;;;;;;61.25;35.95;;;3.20;82.50;;;;;;5034217;28;20684;-76
2023/12/08 07:48:29;;;;;;;64.97;38.20;;;3.20;82.50;;;;;;5038791;28;20227;-75
2023/12/08 07:50:58;;;;;;;59.55;36.22;;;3.10;82.60;;;;;;5022053;28;20257;-76
2023/12/08 07:53:26;;;;;;;55.60;29.80;;;3.10;82.60;;;;;;5050396;28;20217;-75
2023/12/08 07:55:54;;;;;;;48.90;27.23;;;3.10;82.50;;;;;;5040564;28;20269;-75
2023/12/08 07:58:22;;;;;;;47.65;28.88;;;3.10;82.60;;;;;;5037970;28;20222;-76
2023/12/08 08:00:51;;;;;;;51.78;29.35;;;3.00;82.60;;;;;;5039346;28;20236;-76
2023/12/08 08:03:20;;;;;;;54.00;30.52;;;3.00;82.70;;;;;;5051334;28;20216;-75
2023/12/08 08:05:48;;;;;;;61.85;32.95;;;3.10;82.70;;;;;;5052115;28;20574;-75
2023/12/08 08:08:17;;;;;;;63.55;33.10;;;3.10;82.70;;;;;;5043688;28;20230;-75
2023/12/08 08:10:45;;;;;;;55.92;31.90;;;3.00;82.70;;;;;;5072227;28;20218;-75
2023/12/08 08:13:13;;;;;;;50.75;30.90;;;3.00;82.70;;;;;;5056245;28;20199;-75
2023/12/08 08:15:41;;;;;;;52.75;30.98;;;3.00;82.70;;;;;;5053986;28;20282;-75
2023/12/08 08:18:09;;;;;;;52.25;30.33;;;3.00;82.60;;;;;;5053169;28;20206;-75
2023/12/08 08:20:39;;;;;;;66.60;35.42;;;3.00;82.70;;;;;;5049027;28;20233;-75
2023/12/08 08:23:07;;;;;;;87.97;44.45;;;3.00;82.80;;;;;;5053803;28;20237;-75
2023/12/08 08:25:37;;;;;;;86.63;45.22;;;3.00;82.80;;;;;;5050869;28;20201;-75
2023/12/08 08:28:05;;;;;;;62.28;37.20;;;3.00;82.80;;;;;;5050156;28;20213;-75
2023/12/08 08:30:33;;;;;;;56.47;32.08;;;2.90;82.90;;;;;;5046280;28;20303;-76
2023/12/08 08:33:01;;;;;;;57.08;32.25;;;2.90;82.90;;;;;;5025841;28;20211;-75
2023/12/08 08:35:29;;;;;;;60.78;32.90;;;2.90;82.90;;;;;;5029772;28;20291;-76
2023/12/08 08:37:58;;;;;;;62.10;33.40;;;2.90;82.90;;;;;;5028853;28;20220;-76
2023/12/08 08:40:26;;;;;;;54.03;32.88;;;2.90;82.90;;;;;;5030404;28;20678;-75
2023/12/08 08:42:54;;;;;;;62.88;36.53;;;2.80;83.00;;;;;;5025503;28;20206;-75
2023/12/08 08:45:22;;;;;;;59.65;35.17;;;2.80;83.10;;;;;;5027490;28;20215;-76
2023/12/08 08:47:50;;;;;;;61.83;34.95;;;2.80;83.20;;;;;;5030521;28;20562;-75
2023/12/08 08:50:18;;;;;;;66.90;36.08;;;2.80;83.30;;;;;;5030451;28;20200;-75
2023/12/08 08:52:46;;;;;;;75.47;36.50;;;2.80;83.30;;;;;;5028198;28;20290;-75
2023/12/08 08:55:15;;;;;;;75.65;40.30;;;2.80;83.40;;;;;;5043271;28;20208;-75
2023/12/08 08:57:44;;;;;;;66.22;36.70;;;2.80;83.40;;;;;;5025618;28;20215;-76
2023/12/08 09:00:14;;;;;;;69.40;36.15;;;2.80;83.50;;;;;;5027856;28;20317;-75
2023/12/08 09:02:43;;;;;;;57.53;32.10;;;2.80;83.50;;;;;;5029157;28;20219;-75
2023/12/08 09:05:12;;;;;;;60.47;33.25;;;2.70;83.50;;;;;;5029767;28;20626;-75
2023/12/08 09:07:40;;;;;;;58.95;32.13;;;2.80;83.60;;;;;;5032331;28;20585;-75
2023/12/08 09:10:09;;;;;;;58.03;33.08;;;2.80;83.70;;;;;;5030860;28;20209;-75
2023/12/08 09:12:38;;;;;;;54.15;32.28;;;2.80;83.70;;;;;;5037370;28;20203;-75
2023/12/08 09:15:08;;;;;;;58.33;30.25;;;2.80;83.80;;;;;;5029957;28;20210;-75
2023/12/08 09:17:36;;;;;;;59.42;32.88;;;2.80;83.80;;;;;;5029817;28;20207;-75
2023/12/08 09:20:07;;;;;;;60.78;32.20;;;2.80;83.80;;;;;;5028253;28;20231;-75
2023/12/08 09:22:35;;;;;;;64.57;33.40;;;2.80;83.80;;;;;;5029118;28;20210;-75
2023/12/08 09:25:04;;;;;;;58.28;32.65;;;2.90;83.90;;;;;;5027465;28;20211;-75
2023/12/08 09:27:32;;;;;;;61.90;32.72;;;2.90;83.90;;;;;;5035256;28;20194;-76
2023/12/08 09:30:02;;;;;;;60.40;32.22;;;3.00;84.00;;;;;;5030623;28;20205;-75
2023/12/08 09:32:30;;;;;;;57.95;32.33;;;3.10;84.10;;;;;;5048397;28;20672;-75
2023/12/08 09:34:58;;;;;;;57.95;31.50;;;3.10;84.00;;;;;;5047145;28;20214;-75
2023/12/08 09:37:26;;;;;;;55.47;30.63;;;3.20;83.80;;;;;;5049970;28;20320;-76
2023/12/08 09:40:08;;;;;;;57.83;32.22;;;3.20;83.80;;;;;;5048028;28;20317;-75
2023/12/08 09:42:40;;;;;;;56.13;32.00;;;3.20;83.70;;;;;;5049359;28;20219;-75
2023/12/08 09:45:10;;;;;;;62.67;34.65;;;3.30;83.70;;;;;;5050212;28;20222;-76
2023/12/08 09:47:41;;;;;;;61.30;33.65;;;3.30;83.80;;;;;;5051546;28;20283;-75
2023/12/08 09:50:10;;;;;;;57.33;33.53;;;3.30;83.70;;;;;;5052571;28;20512;-76
2023/12/08 09:52:39;;;;;;;88.78;46.17;;;3.30;83.70;;;;;;5050194;28;20203;-75
2023/12/08 09:55:08;;;;;;;115.30;51.72;;;3.30;83.80;;;;;;5048507;28;20211;-76
2023/12/08 09:57:37;;;;;;;65.78;35.13;;;3.30;83.70;;;;;;5051485;28;20246;-76
2023/12/08 10:00:12;;;;;;;124.05;51.53;;;3.30;83.70;;;;;;5040155;28;20322;-75
2023/12/08 10:02:42;;;;;;;80.85;38.25;;;3.30;83.70;;;;;;5026923;28;20248;-75
2023/12/08 10:05:11;;;;;;;71.00;37.28;;;3.30;83.70;;;;;;5026535;28;20202;-76
2023/12/08 10:07:43;;;;;;;107.88;48.85;;;3.30;83.80;;;;;;5026395;28;20203;-76
2023/12/08 10:10:11;;;;;;;122.85;56.50;;;3.30;83.80;;;;;;5041785;28;20823;-75
2023/12/08 10:12:40;;;;;;;132.35;53.70;;;3.40;83.90;;;;;;5027056;28;20295;-75
2023/12/08 10:15:10;;;;;;;74.60;38.78;;;3.40;84.00;;;;;;5025781;28;20211;-75
2023/12/08 10:17:48;;;;;;;80.53;40.28;;;3.40;84.00;;;;;;5030279;28;20221;-75
2023/12/08 10:20:20;;;;;;;77.00;38.63;;;3.50;84.00;;;;;;5030323;28;20238;-75
2023/12/08 10:22:49;;;;;;;75.35;38.10;;;3.50;84.00;;;;;;5031522;28;20583;-75
2023/12/08 10:25:19;;;;;;;84.15;41.70;;;3.50;84.00;;;;;;5019693;28;20219;-75
2023/12/08 10:27:49;;;;;;;69.05;35.90;;;3.60;84.10;;;;;;5031237;28;20237;-75
2023/12/08 10:30:18;;;;;;;65.90;36.63;;;3.60;84.00;;;;;;5026618;28;20207;-76
2023/12/08 10:32:48;;;;;;;59.97;36.45;;;3.60;84.00;;;;;;5046959;28;20199;-75
2023/12/08 10:35:17;;;;;;;62.00;35.78;;;3.70;84.00;;;;;;5051003;28;20658;-75
2023/12/08 10:37:45;;;;;;;58.60;32.55;;;3.70;83.90;;;;;;5049187;28;20201;-76
2023/12/08 10:40:14;;;;;;;60.42;33.70;;;3.70;83.90;;;;;;5048353;28;20437;-75
2023/12/08 10:42:45;;;;;;;67.05;34.60;;;3.70;83.90;;;;;;5064166;28;20570;-75
2023/12/08 10:45:14;;;;;;;67.22;35.65;;;3.70;83.80;;;;;;5050854;28;20235;-75
2023/12/08 10:47:43;;;;;;;69.75;33.10;;;3.70;83.80;;;;;;5051462;28;20203;-75
2023/12/08 10:50:13;;;;;;;63.03;33.65;;;3.60;83.80;;;;;;5047180;28;20254;-75
2023/12/08 10:52:42;;;;;;;69.60;35.95;;;3.60;83.80;;;;;;5047009;28;20195;-75
2023/12/08 10:55:11;;;;;;;75.97;37.05;;;3.60;83.80;;;;;;5049227;28;20212;-75
2023/12/08 10:57:39;;;;;;;66.60;34.13;;;3.60;83.90;;;;;;5048051;28;20207;-75
2023/12/08 11:00:16;;;;;;;68.40;36.55;;;3.60;84.00;;;;;;5044361;28;20234;-75
2023/12/08 11:02:47;;;;;;;72.85;35.92;;;3.60;84.00;;;;;;5049456;28;20687;-76
2023/12/08 11:05:23;;;;;;;63.35;32.80;;;3.60;84.10;;;;;;5047447;28;20636;-75
2023/12/08 11:07:54;;;;;;;65.57;32.00;;;3.60;84.10;;;;;;5048109;28;20202;-75
2023/12/08 11:10:24;;;;;;;58.47;31.20;;;3.70;84.10;;;;;;5045206;28;20296;-75
2023/12/08 11:13:06;;;;;;;56.90;31.65;;;3.70;84.00;;;;;;5046018;28;20253;-76
2023/12/08 11:15:39;;;;;;;54.70;29.65;;;3.70;84.10;;;;;;5040137;28;20690;-76
2023/12/08 11:18:15;;;;;;;50.80;29.80;;;3.70;84.10;;;;;;5047907;28;20680;-76
2023/12/08 11:20:45;;;;;;;51.10;29.33;;;3.70;84.10;;;;;;5046081;28;20226;-77
2023/12/08 11:23:14;;;;;;;56.83;30.17;;;3.70;84.10;;;;;;5044390;28;20228;-77
2023/12/08 11:25:47;;;;;;;56.53;30.85;;;3.70;84.00;;;;;;5046082;28;20679;-77
2023/12/08 11:28:25;;;;;;;58.45;29.50;;;3.80;84.00;;;;;;5047297;28;20199;-76
2023/12/08 11:30:58;;;;;;;57.65;29.88;;;3.80;84.00;;;;;;5039842;28;20576;-76
2023/12/08 11:33:33;;;;;;;58.05;30.60;;;3.80;84.00;;;;;;5051324;28;20707;-76
2023/12/08 11:36:10;;;;;;;61.15;34.25;;;3.80;84.00;;;;;;5046323;28;20249;-76
2023/12/08 11:38:38;;;;;;;253.73;124.03;;;3.80;84.10;;;;;;5046765;28;20665;-76
2023/12/08 11:41:12;;;;;;;69.28;36.17;;;3.80;84.00;;;;;;5050472;28;20196;-76
2023/12/08 11:43:42;;;;;;;59.70;32.28;;;3.80;84.10;;;;;;5050271;28;20305;-77
2023/12/08 11:46:10;;;;;;;60.45;34.17;;;3.80;84.10;;;;;;5050731;28;20218;-76
2023/12/08 11:48:38;;;;;;;64.57;33.45;;;3.80;84.10;;;;;;5058898;28;20210;-77
2023/12/08 11:51:11;;;;;;;53.90;31.33;;;3.80;84.10;;;;;;5051510;28;20211;-76
2023/12/08 11:53:57;;;;;;;56.47;30.75;;;3.80;84.10;;;;;;5050928;28;20592;-76
2023/12/08 11:56:45;;;;;;;53.08;29.42;;;3.80;84.10;;;;;;5049277;28;20211;-76
2023/12/08 11:59:22;;;;;;;53.72;29.95;;;3.90;84.10;;;;;;5055684;28;20221;-76
2023/12/08 12:01:51;;;;;;;52.53;27.65;;;3.80;84.10;;;;;;5049997;28;20567;-76
2023/12/08 12:04:19;;;;;;;51.00;28.70;;;3.80;84.10;;;;;;5051550;28;20535;-76
2023/12/08 12:06:52;;;;;;;51.20;28.38;;;3.80;84.10;;;;;;5052665;28;20211;-76
2023/12/08 12:09:21;;;;;;;48.20;25.80;;;3.80;84.10;;;;;;5051257;28;20551;-76
2023/12/08 12:11:51;;;;;;;50.17;27.25;;;3.80;84.10;;;;;;5046547;28;20202;-77
2023/12/08 12:14:21;;;;;;;45.05;25.90;;;3.90;84.10;;;;;;5064641;28;20303;-77
2023/12/08 12:16:49;;;;;;;46.55;27.60;;;3.90;84.10;;;;;;5046288;28;20214;-76
2023/12/08 12:19:19;;;;;;;43.35;27.13;;;3.90;84.20;;;;;;5052523;28;20206;-77
2023/12/08 12:21:49;;;;;;;45.42;26.80;;;3.90;84.20;;;;;;5057820;28;20225;-76
2023/12/08 12:24:17;;;;;;;45.08;26.08;;;3.90;84.20;;;;;;5050305;28;20536;-76
2023/12/08 12:26:45;;;;;;;45.72;25.70;;;3.90;84.20;;;;;;5052201;28;20212;-76
2023/12/08 12:29:15;;;;;;;51.33;27.95;;;3.90;84.20;;;;;;5057095;28;20309;-77
2023/12/08 12:31:42;;;;;;;42.70;26.13;;;3.90;84.20;;;;;;5049975;28;20233;-77
2023/12/08 12:34:11;;;;;;;73.30;41.40;;;3.90;84.20;;;;;;5051613;28;20222;-76
2023/12/08 12:36:41;;;;;;;243.43;125.68;;;4.00;84.20;;;;;;5046891;28;20219;-77
2023/12/08 12:39:11;;;;;;;100.43;52.75;;;4.00;84.20;;;;;;5063746;28;20238;-77
2023/12/08 12:41:39;;;;;;;79.15;40.38;;;4.00;84.20;;;;;;5047168;28;20235;-76
2023/12/08 12:44:08;;;;;;;63.58;35.63;;;4.00;84.20;;;;;;5048542;28;20738;-77
2023/12/08 12:46:41;;;;;;;62.60;33.45;;;4.00;84.20;;;;;;5049985;28;20563;-77